sensor_id;sensor_type;location;lat;lon;timestamp;P1;durP1;ratioP1;P2;durP2;ratioP2
35644;SDS011;21764;52.042;6.830;2023-03-01T00:00:03;22.63;;;11.50;;
35644;SDS011;21764;52.042;6.830;2023-03-01T00:05:05;21.38;;;12.23;;
35644;SDS011;21764;52.042;6.830;2023-03-01T00:10:07;23.83;;;12.35;;
35644;SDS011;21764;52.042;6.830;2023-03-01T00:15:08;41.33;;;20.05;;
35644;SDS011;21764;52.042;6.830;2023-03-01T00:20:09;23.10;;;12.65;;
35644;SDS011;21764;52.042;6.830;2023-03-01T00:25:10;21.80;;;11.60;;
35644;SDS011;21764;52.042;6.830;2023-03-01T00:30:11;21.48;;;12.00;;
35644;SDS011;21764;52.042;6.830;2023-03-01T00:35:12;23.52;;;11.80;;
35644;SDS011;21764;52.042;6.830;2023-03-01T00:40:13;29.35;;;13.20;;
35644;SDS011;21764;52.042;6.830;2023-03-01T00:45:16;23.33;;;12.40;;
35644;SDS011;21764;52.042;6.830;2023-03-01T00:50:17;22.20;;;11.80;;
35644;SDS011;21764;52.042;6.830;2023-03-01T00:55:18;20.88;;;11.27;;
35644;SDS011;21764;52.042;6.830;2023-03-01T01:00:19;22.17;;;11.43;;
35644;SDS011;21764;52.042;6.830;2023-03-01T01:05:20;22.73;;;11.85;;
35644;SDS011;21764;52.042;6.830;2023-03-01T01:10:21;20.52;;;12.02;;
35644;SDS011;21764;52.042;6.830;2023-03-01T01:15:22;24.45;;;12.48;;
35644;SDS011;21764;52.042;6.830;2023-03-01T01:20:22;22.25;;;12.68;;
35644;SDS011;21764;52.042;6.830;2023-03-01T01:25:23;23.83;;;11.88;;
35644;SDS011;21764;52.042;6.830;2023-03-01T01:30:27;24.63;;;12.07;;
35644;SDS011;21764;52.042;6.830;2023-03-01T01:35:27;19.83;;;11.45;;
35644;SDS011;21764;52.042;6.830;2023-03-01T01:40:28;23.00;;;12.05;;
35644;SDS011;21764;52.042;6.830;2023-03-01T01:45:32;21.98;;;11.95;;
35644;SDS011;21764;52.042;6.830;2023-03-01T01:50:34;22.15;;;12.05;;
35644;SDS011;21764;52.042;6.830;2023-03-01T02:00:42;21.63;;;12.23;;
35644;SDS011;21764;52.042;6.830;2023-03-01T02:05:51;32.78;;;12.02;;
35644;SDS011;21764;52.042;6.830;2023-03-01T02:10:58;19.08;;;11.88;;
35644;SDS011;21764;52.042;6.830;2023-03-01T02:16:02;22.83;;;11.82;;
35644;SDS011;21764;52.042;6.830;2023-03-01T02:21:22;23.65;;;11.90;;
35644;SDS011;21764;52.042;6.830;2023-03-01T02:26:45;24.25;;;12.32;;
35644;SDS011;21764;52.042;6.830;2023-03-01T02:31:50;21.33;;;12.50;;
35644;SDS011;21764;52.042;6.830;2023-03-01T02:36:55;23.27;;;12.43;;
35644;SDS011;21764;52.042;6.830;2023-03-01T02:42:04;22.92;;;12.05;;
35644;SDS011;21764;52.042;6.830;2023-03-01T02:47:06;25.33;;;13.30;;
35644;SDS011;21764;52.042;6.830;2023-03-01T02:57:26;23.65;;;13.13;;
35644;SDS011;21764;52.042;6.830;2023-03-01T03:02:29;22.17;;;12.50;;
35644;SDS011;21764;52.042;6.830;2023-03-01T03:07:36;22.90;;;11.88;;
35644;SDS011;21764;52.042;6.830;2023-03-01T03:12:39;23.25;;;12.90;;
35644;SDS011;21764;52.042;6.830;2023-03-01T03:17:41;21.20;;;12.50;;
35644;SDS011;21764;52.042;6.830;2023-03-01T03:22:42;23.80;;;13.52;;
35644;SDS011;21764;52.042;6.830;2023-03-01T03:27:44;26.23;;;13.23;;
35644;SDS011;21764;52.042;6.830;2023-03-01T03:32:46;22.95;;;12.68;;
35644;SDS011;21764;52.042;6.830;2023-03-01T03:37:52;25.88;;;11.75;;
35644;SDS011;21764;52.042;6.830;2023-03-01T03:43:05;26.60;;;12.70;;
35644;SDS011;21764;52.042;6.830;2023-03-01T03:48:11;22.25;;;11.68;;
35644;SDS011;21764;52.042;6.830;2023-03-01T03:53:12;22.55;;;12.13;;
35644;SDS011;21764;52.042;6.830;2023-03-01T03:58:13;22.95;;;12.95;;
35644;SDS011;21764;52.042;6.830;2023-03-01T04:03:14;24.52;;;13.55;;
35644;SDS011;21764;52.042;6.830;2023-03-01T04:08:16;26.95;;;13.65;;
35644;SDS011;21764;52.042;6.830;2023-03-01T04:13:21;24.33;;;12.02;;
35644;SDS011;21764;52.042;6.830;2023-03-01T04:18:25;24.27;;;12.13;;
35644;SDS011;21764;52.042;6.830;2023-03-01T04:23:25;23.27;;;12.30;;
35644;SDS011;21764;52.042;6.830;2023-03-01T04:33:27;27.15;;;13.02;;
35644;SDS011;21764;52.042;6.830;2023-03-01T04:38:27;28.83;;;13.27;;
35644;SDS011;21764;52.042;6.830;2023-03-01T04:43:28;23.92;;;13.45;;
35644;SDS011;21764;52.042;6.830;2023-03-01T04:48:29;27.83;;;12.70;;
35644;SDS011;21764;52.042;6.830;2023-03-01T04:53:31;25.00;;;14.55;;
35644;SDS011;21764;52.042;6.830;2023-03-01T04:58:32;24.25;;;12.50;;
35644;SDS011;21764;52.042;6.830;2023-03-01T05:03:33;27.08;;;12.63;;
35644;SDS011;21764;52.042;6.830;2023-03-01T05:08:34;22.60;;;13.40;;
35644;SDS011;21764;52.042;6.830;2023-03-01T05:13:37;27.17;;;13.77;;
35644;SDS011;21764;52.042;6.830;2023-03-01T05:18:39;26.20;;;14.43;;
35644;SDS011;21764;52.042;6.830;2023-03-01T05:23:41;28.95;;;14.27;;
35644;SDS011;21764;52.042;6.830;2023-03-01T05:28:42;29.48;;;14.30;;
35644;SDS011;21764;52.042;6.830;2023-03-01T05:33:42;29.77;;;14.63;;
35644;SDS011;21764;52.042;6.830;2023-03-01T05:38:43;31.92;;;16.90;;
35644;SDS011;21764;52.042;6.830;2023-03-01T05:43:44;37.67;;;17.70;;
35644;SDS011;21764;52.042;6.830;2023-03-01T05:48:44;30.80;;;15.40;;
35644;SDS011;21764;52.042;6.830;2023-03-01T05:53:45;26.67;;;13.02;;
35644;SDS011;21764;52.042;6.830;2023-03-01T05:58:47;26.50;;;15.00;;
35644;SDS011;21764;52.042;6.830;2023-03-01T06:03:49;24.80;;;12.80;;
35644;SDS011;21764;52.042;6.830;2023-03-01T06:08:50;60.75;;;22.88;;
35644;SDS011;21764;52.042;6.830;2023-03-01T06:13:51;30.73;;;14.45;;
35644;SDS011;21764;52.042;6.830;2023-03-01T06:18:53;38.65;;;16.67;;
35644;SDS011;21764;52.042;6.830;2023-03-01T06:23:54;26.95;;;14.20;;
35644;SDS011;21764;52.042;6.830;2023-03-01T06:28:55;22.25;;;11.10;;
35644;SDS011;21764;52.042;6.830;2023-03-01T06:33:55;24.50;;;13.05;;
35644;SDS011;21764;52.042;6.830;2023-03-01T06:38:56;27.17;;;13.68;;
35644;SDS011;21764;52.042;6.830;2023-03-01T06:43:57;30.13;;;14.45;;
35644;SDS011;21764;52.042;6.830;2023-03-01T06:48:57;37.72;;;17.38;;
35644;SDS011;21764;52.042;6.830;2023-03-01T06:53:58;35.45;;;16.85;;
35644;SDS011;21764;52.042;6.830;2023-03-01T06:58:59;30.10;;;16.83;;
35644;SDS011;21764;52.042;6.830;2023-03-01T07:04:00;22.90;;;14.52;;
35644;SDS011;21764;52.042;6.830;2023-03-01T07:09:00;25.63;;;14.07;;
35644;SDS011;21764;52.042;6.830;2023-03-01T07:14:01;19.80;;;12.80;;
35644;SDS011;21764;52.042;6.830;2023-03-01T07:19:02;20.08;;;13.00;;
35644;SDS011;21764;52.042;6.830;2023-03-01T07:24:06;15.50;;;10.27;;
35644;SDS011;21764;52.042;6.830;2023-03-01T07:29:07;21.05;;;11.55;;
35644;SDS011;21764;52.042;6.830;2023-03-01T07:34:10;23.30;;;11.65;;
35644;SDS011;21764;52.042;6.830;2023-03-01T07:39:11;20.55;;;11.23;;
35644;SDS011;21764;52.042;6.830;2023-03-01T07:44:12;17.92;;;11.07;;
35644;SDS011;21764;52.042;6.830;2023-03-01T07:49:12;20.67;;;10.13;;
35644;SDS011;21764;52.042;6.830;2023-03-01T07:54:13;17.88;;;10.90;;
35644;SDS011;21764;52.042;6.830;2023-03-01T07:59:13;20.98;;;10.70;;
35644;SDS011;21764;52.042;6.830;2023-03-01T08:04:14;15.20;;;10.15;;
35644;SDS011;21764;52.042;6.830;2023-03-01T08:09:15;16.35;;;10.02;;
35644;SDS011;21764;52.042;6.830;2023-03-01T08:14:15;13.57;;;9.65;;
35644;SDS011;21764;52.042;6.830;2023-03-01T08:19:16;13.82;;;9.20;;
35644;SDS011;21764;52.042;6.830;2023-03-01T08:24:20;15.20;;;9.45;;
35644;SDS011;21764;52.042;6.830;2023-03-01T08:29:21;13.45;;;9.38;;
35644;SDS011;21764;52.042;6.830;2023-03-01T08:34:22;16.00;;;9.25;;
35644;SDS011;21764;52.042;6.830;2023-03-01T08:39:22;15.63;;;9.23;;
35644;SDS011;21764;52.042;6.830;2023-03-01T08:44:23;14.80;;;9.38;;
35644;SDS011;21764;52.042;6.830;2023-03-01T08:49:24;16.55;;;9.77;;
35644;SDS011;21764;52.042;6.830;2023-03-01T08:54:25;13.23;;;8.98;;
35644;SDS011;21764;52.042;6.830;2023-03-01T08:59:26;14.80;;;8.45;;
35644;SDS011;21764;52.042;6.830;2023-03-01T09:04:26;14.80;;;9.15;;
35644;SDS011;21764;52.042;6.830;2023-03-01T09:09:27;12.65;;;8.70;;
35644;SDS011;21764;52.042;6.830;2023-03-01T09:14:29;15.48;;;8.90;;
35644;SDS011;21764;52.042;6.830;2023-03-01T09:19:30;15.35;;;8.95;;
35644;SDS011;21764;52.042;6.830;2023-03-01T09:24:30;13.65;;;9.43;;
35644;SDS011;21764;52.042;6.830;2023-03-01T09:29:31;14.52;;;7.68;;
35644;SDS011;21764;52.042;6.830;2023-03-01T09:34:32;11.98;;;8.70;;
35644;SDS011;21764;52.042;6.830;2023-03-01T09:39:52;12.02;;;7.90;;
35644;SDS011;21764;52.042;6.830;2023-03-01T09:44:54;12.18;;;8.45;;
35644;SDS011;21764;52.042;6.830;2023-03-01T09:54:58;13.82;;;8.65;;
35644;SDS011;21764;52.042;6.830;2023-03-01T10:00:13;10.80;;;7.53;;
35644;SDS011;21764;52.042;6.830;2023-03-01T10:05:52;14.68;;;8.70;;
35644;SDS011;21764;52.042;6.830;2023-03-01T10:10:58;12.30;;;8.38;;
35644;SDS011;21764;52.042;6.830;2023-03-01T10:16:20;14.65;;;8.38;;
35644;SDS011;21764;52.042;6.830;2023-03-01T10:21:28;14.68;;;8.60;;
35644;SDS011;21764;52.042;6.830;2023-03-01T10:31:57;13.57;;;9.13;;
35644;SDS011;21764;52.042;6.830;2023-03-01T10:37:19;14.25;;;9.05;;
35644;SDS011;21764;52.042;6.830;2023-03-01T10:42:30;14.32;;;8.32;;
35644;SDS011;21764;52.042;6.830;2023-03-01T10:47:32;16.48;;;9.13;;
35644;SDS011;21764;52.042;6.830;2023-03-01T10:52:34;13.98;;;9.77;;
35644;SDS011;21764;52.042;6.830;2023-03-01T10:57:37;17.08;;;11.07;;
35644;SDS011;21764;52.042;6.830;2023-03-01T11:02:40;18.97;;;11.97;;
35644;SDS011;21764;52.042;6.830;2023-03-01T11:07:48;14.23;;;10.43;;
35644;SDS011;21764;52.042;6.830;2023-03-01T11:18:30;20.15;;;11.43;;
35644;SDS011;21764;52.042;6.830;2023-03-01T11:23:31;19.60;;;11.52;;
35644;SDS011;21764;52.042;6.830;2023-03-01T11:28:33;22.35;;;13.40;;
35644;SDS011;21764;52.042;6.830;2023-03-01T11:33:53;21.75;;;11.75;;
35644;SDS011;21764;52.042;6.830;2023-03-01T11:39:46;20.90;;;10.00;;
35644;SDS011;21764;52.042;6.830;2023-03-01T11:44:26;15.57;;;8.95;;
35644;SDS011;21764;52.042;6.830;2023-03-01T11:54:53;17.13;;;8.02;;
35644;SDS011;21764;52.042;6.830;2023-03-01T12:00:30;25.17;;;11.38;;
35644;SDS011;21764;52.042;6.830;2023-03-01T12:11:28;23.23;;;13.25;;
35644;SDS011;21764;52.042;6.830;2023-03-01T12:27:55;19.67;;;10.05;;
35644;SDS011;21764;52.042;6.830;2023-03-01T12:38:37;19.48;;;10.43;;
35644;SDS011;21764;52.042;6.830;2023-03-01T12:49:10;12.98;;;7.68;;
35644;SDS011;21764;52.042;6.830;2023-03-01T12:54:15;9.10;;;5.72;;
35644;SDS011;21764;52.042;6.830;2023-03-01T12:59:27;17.42;;;9.70;;
35644;SDS011;21764;52.042;6.830;2023-03-01T13:05:06;14.00;;;8.60;;
35644;SDS011;21764;52.042;6.830;2023-03-01T13:20:34;14.52;;;8.10;;
35644;SDS011;21764;52.042;6.830;2023-03-01T13:31:08;14.68;;;8.82;;
35644;SDS011;21764;52.042;6.830;2023-03-01T13:36:10;9.13;;;5.10;;
35644;SDS011;21764;52.042;6.830;2023-03-01T13:46:39;16.05;;;8.77;;
35644;SDS011;21764;52.042;6.830;2023-03-01T13:51:40;14.70;;;6.45;;
35644;SDS011;21764;52.042;6.830;2023-03-01T13:56:41;14.13;;;8.63;;
35644;SDS011;21764;52.042;6.830;2023-03-01T14:01:43;12.02;;;6.88;;
35644;SDS011;21764;52.042;6.830;2023-03-01T14:06:51;11.98;;;6.65;;
35644;SDS011;21764;52.042;6.830;2023-03-01T14:22:53;10.48;;;6.53;;
35644;SDS011;21764;52.042;6.830;2023-03-01T14:28:04;14.47;;;6.27;;
35644;SDS011;21764;52.042;6.830;2023-03-01T14:38:38;10.38;;;5.97;;
35644;SDS011;21764;52.042;6.830;2023-03-01T14:43:41;13.93;;;6.70;;
35644;SDS011;21764;52.042;6.830;2023-03-01T14:48:53;11.23;;;6.03;;
35644;SDS011;21764;52.042;6.830;2023-03-01T14:53:58;9.68;;;5.60;;
35644;SDS011;21764;52.042;6.830;2023-03-01T14:58:58;11.48;;;6.53;;
35644;SDS011;21764;52.042;6.830;2023-03-01T15:03:59;12.93;;;6.40;;
35644;SDS011;21764;52.042;6.830;2023-03-01T15:09:01;10.48;;;5.80;;
35644;SDS011;21764;52.042;6.830;2023-03-01T15:14:05;11.90;;;6.50;;
35644;SDS011;21764;52.042;6.830;2023-03-01T15:19:41;11.50;;;5.80;;
35644;SDS011;21764;52.042;6.830;2023-03-01T15:24:41;13.07;;;6.10;;
35644;SDS011;21764;52.042;6.830;2023-03-01T15:29:49;12.73;;;5.75;;
35644;SDS011;21764;52.042;6.830;2023-03-01T15:35:01;13.15;;;6.72;;
35644;SDS011;21764;52.042;6.830;2023-03-01T15:40:49;15.63;;;6.68;;
35644;SDS011;21764;52.042;6.830;2023-03-01T15:51:01;19.00;;;8.23;;
35644;SDS011;21764;52.042;6.830;2023-03-01T15:56:01;14.55;;;6.63;;
35644;SDS011;21764;52.042;6.830;2023-03-01T16:01:02;16.75;;;6.88;;
35644;SDS011;21764;52.042;6.830;2023-03-01T16:06:10;14.55;;;7.20;;
35644;SDS011;21764;52.042;6.830;2023-03-01T16:11:14;11.10;;;6.55;;
35644;SDS011;21764;52.042;6.830;2023-03-01T16:16:18;12.32;;;6.53;;
35644;SDS011;21764;52.042;6.830;2023-03-01T16:21:20;11.65;;;6.57;;
35644;SDS011;21764;52.042;6.830;2023-03-01T16:26:24;19.17;;;7.93;;
35644;SDS011;21764;52.042;6.830;2023-03-01T16:31:25;21.30;;;9.82;;
35644;SDS011;21764;52.042;6.830;2023-03-01T16:36:27;10.52;;;5.65;;
35644;SDS011;21764;52.042;6.830;2023-03-01T16:41:30;10.35;;;5.47;;
35644;SDS011;21764;52.042;6.830;2023-03-01T16:46:31;10.88;;;6.20;;
35644;SDS011;21764;52.042;6.830;2023-03-01T16:51:32;12.50;;;6.15;;
35644;SDS011;21764;52.042;6.830;2023-03-01T16:56:34;9.30;;;5.25;;
35644;SDS011;21764;52.042;6.830;2023-03-01T17:01:37;10.25;;;5.40;;
35644;SDS011;21764;52.042;6.830;2023-03-01T17:06:41;24.17;;;10.70;;
35644;SDS011;21764;52.042;6.830;2023-03-01T17:11:42;8.98;;;5.32;;
35644;SDS011;21764;52.042;6.830;2023-03-01T17:16:43;12.90;;;6.75;;
35644;SDS011;21764;52.042;6.830;2023-03-01T17:21:44;19.17;;;7.68;;
35644;SDS011;21764;52.042;6.830;2023-03-01T17:26:45;23.75;;;7.82;;
35644;SDS011;21764;52.042;6.830;2023-03-01T17:31:46;19.75;;;7.93;;
35644;SDS011;21764;52.042;6.830;2023-03-01T17:36:47;22.85;;;11.95;;
35644;SDS011;21764;52.042;6.830;2023-03-01T17:41:49;15.55;;;9.80;;
35644;SDS011;21764;52.042;6.830;2023-03-01T17:46:50;16.63;;;8.40;;
35644;SDS011;21764;52.042;6.830;2023-03-01T17:51:51;19.35;;;8.07;;
35644;SDS011;21764;52.042;6.830;2023-03-01T17:56:52;11.93;;;6.43;;
35644;SDS011;21764;52.042;6.830;2023-03-01T18:01:54;11.55;;;6.80;;
35644;SDS011;21764;52.042;6.830;2023-03-01T18:06:56;11.32;;;6.60;;
35644;SDS011;21764;52.042;6.830;2023-03-01T18:11:57;21.30;;;9.88;;
35644;SDS011;21764;52.042;6.830;2023-03-01T18:16:58;34.70;;;12.38;;
35644;SDS011;21764;52.042;6.830;2023-03-01T18:22:01;17.67;;;9.27;;
35644;SDS011;21764;52.042;6.830;2023-03-01T18:27:01;14.38;;;8.00;;
35644;SDS011;21764;52.042;6.830;2023-03-01T18:32:02;16.65;;;8.27;;
35644;SDS011;21764;52.042;6.830;2023-03-01T18:37:04;35.33;;;16.83;;
35644;SDS011;21764;52.042;6.830;2023-03-01T18:42:04;28.23;;;15.75;;
35644;SDS011;21764;52.042;6.830;2023-03-01T18:47:05;35.75;;;13.65;;
35644;SDS011;21764;52.042;6.830;2023-03-01T18:52:06;16.70;;;9.70;;
35644;SDS011;21764;52.042;6.830;2023-03-01T18:57:06;23.75;;;11.23;;
35644;SDS011;21764;52.042;6.830;2023-03-01T19:02:09;31.40;;;14.63;;
35644;SDS011;21764;52.042;6.830;2023-03-01T19:07:10;15.82;;;8.80;;
35644;SDS011;21764;52.042;6.830;2023-03-01T19:12:11;13.52;;;7.95;;
35644;SDS011;21764;52.042;6.830;2023-03-01T19:17:12;15.88;;;8.00;;
35644;SDS011;21764;52.042;6.830;2023-03-01T19:22:13;24.95;;;13.05;;
35644;SDS011;21764;52.042;6.830;2023-03-01T19:27:14;14.88;;;8.65;;
35644;SDS011;21764;52.042;6.830;2023-03-01T19:32:14;13.60;;;7.28;;
35644;SDS011;21764;52.042;6.830;2023-03-01T19:37:15;14.23;;;7.57;;
35644;SDS011;21764;52.042;6.830;2023-03-01T19:42:16;13.57;;;8.55;;
35644;SDS011;21764;52.042;6.830;2023-03-01T19:47:16;55.60;;;19.55;;
35644;SDS011;21764;52.042;6.830;2023-03-01T19:52:18;30.58;;;14.68;;
35644;SDS011;21764;52.042;6.830;2023-03-01T19:57:18;26.50;;;12.77;;
35644;SDS011;21764;52.042;6.830;2023-03-01T20:02:20;15.50;;;8.57;;
35644;SDS011;21764;52.042;6.830;2023-03-01T20:07:20;30.33;;;10.82;;
35644;SDS011;21764;52.042;6.830;2023-03-01T20:12:21;16.75;;;8.40;;
35644;SDS011;21764;52.042;6.830;2023-03-01T20:17:22;29.70;;;16.70;;
35644;SDS011;21764;52.042;6.830;2023-03-01T20:22:22;65.78;;;35.15;;
35644;SDS011;21764;52.042;6.830;2023-03-01T20:27:23;38.97;;;22.92;;
35644;SDS011;21764;52.042;6.830;2023-03-01T20:32:24;44.00;;;22.27;;
35644;SDS011;21764;52.042;6.830;2023-03-01T20:37:24;61.70;;;28.27;;
35644;SDS011;21764;52.042;6.830;2023-03-01T20:42:25;34.17;;;16.05;;
35644;SDS011;21764;52.042;6.830;2023-03-01T20:47:25;21.02;;;9.52;;
35644;SDS011;21764;52.042;6.830;2023-03-01T20:52:26;46.97;;;23.50;;
35644;SDS011;21764;52.042;6.830;2023-03-01T20:57:28;39.47;;;22.92;;
35644;SDS011;21764;52.042;6.830;2023-03-01T21:02:29;24.88;;;14.20;;
35644;SDS011;21764;52.042;6.830;2023-03-01T21:07:30;20.15;;;10.30;;
35644;SDS011;21764;52.042;6.830;2023-03-01T21:12:31;21.10;;;9.82;;
35644;SDS011;21764;52.042;6.830;2023-03-01T21:17:31;19.10;;;9.38;;
35644;SDS011;21764;52.042;6.830;2023-03-01T21:22:32;17.48;;;8.65;;
35644;SDS011;21764;52.042;6.830;2023-03-01T21:27:35;19.02;;;8.35;;
35644;SDS011;21764;52.042;6.830;2023-03-01T21:32:36;16.50;;;8.82;;
35644;SDS011;21764;52.042;6.830;2023-03-01T21:37:37;14.98;;;8.10;;
35644;SDS011;21764;52.042;6.830;2023-03-01T21:42:39;18.20;;;8.80;;
35644;SDS011;21764;52.042;6.830;2023-03-01T21:47:42;21.35;;;8.88;;
35644;SDS011;21764;52.042;6.830;2023-03-01T21:52:43;20.55;;;9.73;;
35644;SDS011;21764;52.042;6.830;2023-03-01T21:57:44;14.43;;;8.02;;
35644;SDS011;21764;52.042;6.830;2023-03-01T22:02:44;13.52;;;8.38;;
35644;SDS011;21764;52.042;6.830;2023-03-01T22:07:45;16.42;;;8.43;;
35644;SDS011;21764;52.042;6.830;2023-03-01T22:12:46;20.65;;;8.98;;
35644;SDS011;21764;52.042;6.830;2023-03-01T22:17:46;17.33;;;9.20;;
35644;SDS011;21764;52.042;6.830;2023-03-01T22:22:47;18.48;;;9.52;;
35644;SDS011;21764;52.042;6.830;2023-03-01T22:27:48;25.50;;;12.20;;
35644;SDS011;21764;52.042;6.830;2023-03-01T22:32:48;19.17;;;9.65;;
35644;SDS011;21764;52.042;6.830;2023-03-01T22:37:49;21.42;;;10.60;;
35644;SDS011;21764;52.042;6.830;2023-03-01T22:42:50;16.65;;;9.48;;
35644;SDS011;21764;52.042;6.830;2023-03-01T22:47:50;18.02;;;10.23;;
35644;SDS011;21764;52.042;6.830;2023-03-01T22:52:51;19.80;;;10.77;;
35644;SDS011;21764;52.042;6.830;2023-03-01T22:57:52;23.35;;;11.60;;
35644;SDS011;21764;52.042;6.830;2023-03-01T23:02:52;26.20;;;12.18;;
35644;SDS011;21764;52.042;6.830;2023-03-01T23:07:53;23.35;;;11.68;;
35644;SDS011;21764;52.042;6.830;2023-03-01T23:12:55;22.75;;;11.30;;
35644;SDS011;21764;52.042;6.830;2023-03-01T23:17:56;19.42;;;11.75;;
35644;SDS011;21764;52.042;6.830;2023-03-01T23:22:57;19.92;;;11.43;;
35644;SDS011;21764;52.042;6.830;2023-03-01T23:28:00;22.58;;;12.07;;
35644;SDS011;21764;52.042;6.830;2023-03-01T23:33:01;27.80;;;12.23;;
35644;SDS011;21764;52.042;6.830;2023-03-01T23:38:02;21.98;;;12.23;;
35644;SDS011;21764;52.042;6.830;2023-03-01T23:43:02;32.15;;;14.50;;
35644;SDS011;21764;52.042;6.830;2023-03-01T23:48:03;26.23;;;13.93;;
35644;SDS011;21764;52.042;6.830;2023-03-01T23:53:04;31.52;;;16.13;;
35644;SDS011;21764;52.042;6.830;2023-03-01T23:58:05;32.75;;;16.25;;
